Time;durP1;ratioP1;P1;durP2;ratioP2;P2;SDS_P1;SDS_P2;PMS_P1;PMS_P2;Temp;Humidity;BMP_temperature;BMP_pressure;BME280_temperature;BME280_humidity;BME280_pressure;Samples;Min_cycle;Max_cycle;Signal;HPM_P1;HPM_P2
2023/03/24 00:00:57;;;;;;;4.95;2.22;;;11.50;99.90;;;;;;5045210;28;20436;-45
2023/03/24 00:03:24;;;;;;;4.32;1.95;;;11.50;99.90;;;;;;5042670;28;20177;-44
2023/03/24 00:05:57;;;;;;;6.22;2.60;;;11.50;99.90;;;;;;5044513;28;20047;-48
2023/03/24 00:08:23;;;;;;;4.13;2.15;;;11.60;99.90;;;;;;5047118;28;20040;-45
2023/03/24 00:10:49;;;;;;;4.88;2.33;;;11.70;99.90;;;;;;5045830;28;20033;-45
2023/03/24 00:13:15;;;;;;;8.85;2.78;;;11.70;99.90;;;;;;5043563;28;20506;-45
2023/03/24 00:15:41;;;;;;;3.15;1.80;;;11.60;99.90;;;;;;5043045;28;20388;-47
2023/03/24 00:18:09;;;;;;;6.88;1.90;;;11.70;99.90;;;;;;5047455;28;20086;-44
2023/03/24 00:20:35;;;;;;;7.38;2.55;;;11.70;99.90;;;;;;5047987;28;20017;-44
2023/03/24 00:23:00;;;;;;;5.18;2.33;;;11.60;99.90;;;;;;5044928;28;20036;-44
2023/03/24 00:25:32;;;;;;;6.78;2.00;;;11.60;99.90;;;;;;5041793;28;20487;-44
2023/03/24 00:27:58;;;;;;;5.45;2.03;;;11.60;99.90;;;;;;5046590;28;20264;-44
2023/03/24 00:30:24;;;;;;;2.95;1.98;;;11.60;99.90;;;;;;5041821;28;20030;-44
2023/03/24 00:32:51;;;;;;;5.82;2.55;;;11.70;99.90;;;;;;5061061;28;20083;-44
2023/03/24 00:35:17;;;;;;;8.02;2.70;;;11.60;99.90;;;;;;5040791;28;20124;-45
2023/03/24 00:37:43;;;;;;;5.55;2.05;;;11.70;99.90;;;;;;5043948;28;20056;-45
2023/03/24 00:40:15;;;;;;;5.40;2.63;;;11.70;99.90;;;;;;5042483;28;20040;-44
2023/03/24 00:42:44;;;;;;;4.97;2.30;;;11.70;99.90;;;;;;5044385;28;20094;-44
2023/03/24 00:45:12;;;;;;;5.63;2.15;;;11.80;99.90;;;;;;5042265;28;20108;-44
2023/03/24 00:47:38;;;;;;;4.22;2.08;;;11.80;99.90;;;;;;5044006;28;20384;-44
2023/03/24 00:50:10;;;;;;;7.75;3.08;;;11.80;99.90;;;;;;5043177;28;20029;-48
2023/03/24 00:52:36;;;;;;;6.45;2.15;;;11.80;99.90;;;;;;5043608;28;20491;-45
2023/03/24 00:55:04;;;;;;;3.63;2.20;;;11.80;99.90;;;;;;5042974;28;20558;-45
2023/03/24 00:57:33;;;;;;;3.80;2.00;;;11.90;99.90;;;;;;5042278;28;20387;-47
2023/03/24 01:00:06;;;;;;;5.47;2.25;;;11.80;99.90;;;;;;5041143;28;20064;-45
2023/03/24 01:02:32;;;;;;;6.55;2.33;;;11.80;99.90;;;;;;5042801;28;20107;-46
2023/03/24 01:05:01;;;;;;;5.53;2.30;;;11.70;99.90;;;;;;5047458;28;20078;-45
2023/03/24 01:07:28;;;;;;;5.28;2.15;;;11.70;99.90;;;;;;5041884;28;20021;-46
2023/03/24 01:09:56;;;;;;;4.47;2.47;;;11.60;99.90;;;;;;5044146;28;20096;-47
2023/03/24 01:12:24;;;;;;;3.75;2.30;;;11.60;99.90;;;;;;5053377;28;20025;-45
2023/03/24 01:14:51;;;;;;;4.93;2.50;;;11.50;99.90;;;;;;5042496;28;20025;-46
2023/03/24 01:17:18;;;;;;;4.63;2.58;;;11.50;99.90;;;;;;5043784;28;20017;-46
2023/03/24 01:19:43;;;;;;;11.20;3.47;;;11.40;99.90;;;;;;5041455;28;20013;-46
2023/03/24 01:22:09;;;;;;;5.03;2.63;;;11.40;99.90;;;;;;5041706;28;20036;-44
2023/03/24 01:24:35;;;;;;;6.82;2.97;;;11.30;99.90;;;;;;5043055;28;20262;-46
2023/03/24 01:27:01;;;;;;;6.00;2.75;;;11.20;99.90;;;;;;5042378;28;20040;-46
2023/03/24 01:29:27;;;;;;;4.90;3.00;;;11.20;99.90;;;;;;5041617;28;20475;-45
2023/03/24 01:31:52;;;;;;;7.68;3.13;;;11.10;99.90;;;;;;5043328;28;20033;-46
2023/03/24 01:34:18;;;;;;;7.05;3.38;;;11.00;99.90;;;;;;5040385;28;20052;-45
2023/03/24 01:36:43;;;;;;;8.48;4.22;;;11.00;99.90;;;;;;5045003;28;20356;-45
2023/03/24 01:39:09;;;;;;;9.50;3.85;;;10.90;99.90;;;;;;5042009;28;20363;-46
2023/03/24 01:41:37;;;;;;;6.07;3.20;;;10.90;99.90;;;;;;5042624;28;20021;-47
2023/03/24 01:44:31;;;;;;;9.02;3.28;;;11.00;99.90;;;;;;5042479;28;20029;-45
2023/03/24 01:46:57;;;;;;;6.68;3.53;;;10.90;99.90;;;;;;5041525;28;20499;-45
2023/03/24 01:49:28;;;;;;;8.75;3.70;;;10.90;99.90;;;;;;5040350;28;20026;-45
2023/03/24 01:51:57;;;;;;;;;;;10.90;99.90;;;;;;5043469;28;20008;-46
2023/03/24 01:54:28;;;;;;;8.82;3.55;;;10.90;99.90;;;;;;5044602;28;20186;-45
2023/03/24 01:57:05;;;;;;;10.05;3.83;;;10.90;99.90;;;;;;5042407;28;20488;-45
2023/03/24 01:59:34;;;;;;;4.00;3.40;;;10.90;99.90;;;;;;5046208;28;20466;-45
2023/03/24 02:02:03;;;;;;;9.50;4.30;;;10.80;99.90;;;;;;5052552;28;20013;-46
2023/03/24 02:04:42;;;;;;;9.02;4.43;;;10.90;99.90;;;;;;5042015;28;20103;-46
2023/03/24 02:07:19;;;;;;;7.43;4.30;;;10.80;99.90;;;;;;5043505;28;20021;-45
2023/03/24 02:09:45;;;;;;;5.00;3.58;;;10.80;99.90;;;;;;5040867;28;20025;-45
2023/03/24 02:12:12;;;;;;;7.20;4.45;;;10.80;99.90;;;;;;5042630;28;20060;-45
2023/03/24 02:14:37;;;;;;;9.55;4.50;;;10.90;99.90;;;;;;5042442;28;20036;-47
2023/03/24 02:17:12;;;;;;;7.35;4.00;;;10.90;99.90;;;;;;5046461;28;20040;-45
2023/03/24 02:20:11;;;;;;;10.73;4.47;;;10.90;99.90;;;;;;5044569;28;20079;-45
2023/03/24 02:23:03;;;;;;;7.50;4.43;;;11.00;99.90;;;;;;5041796;28;20395;-45
2023/03/24 02:25:56;;;;;;;8.63;4.50;;;11.00;99.90;;;;;;5041353;28;20024;-46
2023/03/24 02:28:21;;;;;;;9.68;4.40;;;11.00;99.90;;;;;;5045033;28;20028;-46
2023/03/24 02:31:03;;;;;;;7.47;4.53;;;11.00;99.90;;;;;;5045675;28;20351;-45
2023/03/24 02:33:45;;;;;;;10.35;4.32;;;11.00;99.90;;;;;;5041992;28;20482;-45
2023/03/24 02:36:25;;;;;;;6.43;4.43;;;11.10;99.90;;;;;;5042851;28;20039;-45
2023/03/24 02:38:59;;;;;;;;;;;11.10;99.90;;;;;;5041338;28;20376;-45
2023/03/24 02:41:55;;;;;;;5.82;4.30;;;11.20;99.90;;;;;;5041429;28;19958;-46
2023/03/24 02:44:26;;;;;;;5.15;3.90;;;11.20;99.90;;;;;;5043931;28;20429;-45
2023/03/24 02:47:18;;;;;;;9.57;5.10;;;11.30;99.90;;;;;;5042438;28;20263;-45
2023/03/24 02:50:07;;;;;;;7.93;4.40;;;11.20;99.90;;;;;;5041437;28;20044;-45
2023/03/24 02:52:45;;;;;;;7.60;4.85;;;11.20;99.90;;;;;;5057159;28;20244;-45
2023/03/24 02:55:24;;;;;;;7.82;4.70;;;11.30;99.90;;;;;;5043101;28;20056;-46
2023/03/24 02:57:57;;;;;;;7.45;4.57;;;11.30;99.90;;;;;;5040191;28;20491;-45
2023/03/24 03:00:40;;;;;;;10.15;4.70;;;11.30;99.90;;;;;;5040672;28;20017;-45
2023/03/24 03:03:22;;;;;;;8.25;5.03;;;11.30;99.90;;;;;;5042317;28;20009;-45
2023/03/24 03:05:57;;;;;;;5.60;4.30;;;11.30;99.90;;;;;;5039658;28;20105;-45
2023/03/24 03:08:27;;;;;;;8.55;4.43;;;11.40;99.90;;;;;;5041248;28;20021;-45
2023/03/24 03:10:55;;;;;;;7.78;4.65;;;11.40;99.90;;;;;;5040616;28;20022;-45
2023/03/24 03:13:31;;;;;;;5.43;3.85;;;11.40;99.90;;;;;;5041207;28;20017;-45
2023/03/24 03:16:04;;;;;;;6.57;4.38;;;11.50;99.90;;;;;;5040451;28;20032;-49
2023/03/24 03:18:42;;;;;;;10.00;4.05;;;11.50;99.90;;;;;;5045910;28;20462;-45
2023/03/24 03:21:12;;;;;;;8.80;4.45;;;11.60;99.90;;;;;;5042030;28;20017;-47
2023/03/24 03:23:44;;;;;;;6.18;4.30;;;11.60;99.90;;;;;;5038886;28;20104;-47
2023/03/24 03:26:15;;;;;;;6.60;3.55;;;11.60;99.90;;;;;;5041869;28;20471;-46
2023/03/24 03:28:48;;;;;;;;;;;11.70;99.90;;;;;;5039357;28;20029;-45
2023/03/24 03:31:20;;;;;;;4.88;4.10;;;11.70;99.90;;;;;;5040132;28;19909;-47
2023/03/24 03:33:55;;;;;;;4.63;3.63;;;11.70;99.90;;;;;;5039384;28;20017;-48
2023/03/24 03:36:25;;;;;;;6.60;3.67;;;11.70;99.90;;;;;;5039177;28;20048;-47
2023/03/24 03:39:22;;;;;;;8.32;3.30;;;11.80;99.90;;;;;;5039795;28;20048;-48
2023/03/24 03:41:48;;;;;;;5.95;4.20;;;11.70;99.90;;;;;;5039424;28;20013;-45
2023/03/24 03:44:14;;;;;;;6.97;4.00;;;11.80;99.90;;;;;;5041488;28;20087;-48
2023/03/24 03:46:40;;;;;;;6.55;3.17;;;11.80;99.90;;;;;;5045226;28;20113;-46
2023/03/24 03:49:06;;;;;;;6.63;3.20;;;11.90;99.90;;;;;;5043276;28;20021;-45
2023/03/24 03:51:33;;;;;;;3.95;3.00;;;11.90;99.90;;;;;;5045604;28;20027;-46
2023/03/24 03:54:02;;;;;;;5.28;3.20;;;11.90;99.90;;;;;;5042642;28;20685;-46
2023/03/24 03:56:29;;;;;;;4.72;3.10;;;11.90;99.90;;;;;;5036868;28;20096;-47
2023/03/24 03:58:55;;;;;;;5.63;3.22;;;11.90;99.90;;;;;;5039398;28;20221;-45
2023/03/24 04:01:26;;;;;;;5.07;3.50;;;12.00;99.90;;;;;;5037597;28;20021;-45
2023/03/24 04:04:25;;;;;;;5.10;2.95;;;12.10;99.90;;;;;;5039254;28;20017;-45
2023/03/24 04:07:13;;;;;;;5.57;3.05;;;12.00;99.90;;;;;;5039088;28;20036;-46
2023/03/24 04:10:14;;;;;;;3.92;2.90;;;12.10;99.90;;;;;;5036874;28;20155;-46
2023/03/24 04:13:05;;;;;;;5.13;3.30;;;12.20;99.90;;;;;;5033013;28;20033;-45
2023/03/24 04:15:46;;;;;;;4.85;3.10;;;12.30;99.90;;;;;;5039606;28;20080;-46
2023/03/24 04:18:48;;;;;;;7.80;3.00;;;12.30;99.90;;;;;;5045945;28;20531;-45
2023/03/24 04:21:32;;;;;;;4.68;3.13;;;12.30;99.90;;;;;;5044449;28;20057;-45
2023/03/24 04:24:09;;;;;;;4.85;3.05;;;12.40;99.90;;;;;;5042041;28;20037;-46
2023/03/24 04:26:47;;;;;;;5.05;3.40;;;12.40;99.90;;;;;;5040002;28;20024;-45
2023/03/24 04:29:45;;;;;;;5.22;3.28;;;12.50;99.90;;;;;;5043287;28;20605;-47
2023/03/24 04:32:50;;;;;;;5.88;3.13;;;12.50;99.90;;;;;;5040673;28;20086;-45
2023/03/24 04:35:31;;;;;;;4.75;3.03;;;12.50;99.90;;;;;;5041648;28;20272;-45
2023/03/24 04:38:01;;;;;;;;;;;12.40;99.90;;;;;;5044151;28;20113;-46
2023/03/24 04:40:31;;;;;;;4.03;3.60;;;12.40;99.90;;;;;;5043334;28;19908;-45
2023/03/24 04:43:00;;;;;;;6.13;3.60;;;12.40;99.90;;;;;;5042896;28;20009;-48
2023/03/24 04:45:26;;;;;;;6.43;3.63;;;12.40;99.90;;;;;;5042629;28;20036;-46
2023/03/24 04:47:56;;;;;;;5.53;4.07;;;12.40;99.90;;;;;;5048077;28;20402;-45
2023/03/24 04:50:30;;;;;;;6.68;3.63;;;12.50;99.90;;;;;;5047504;28;20028;-45
2023/03/24 04:52:55;;;;;;;5.00;3.97;;;12.40;99.90;;;;;;5051134;28;20021;-46
2023/03/24 04:55:36;;;;;;;8.57;3.83;;;12.50;99.90;;;;;;5050706;28;20112;-47
2023/03/24 04:58:02;;;;;;;;;;;12.50;99.90;;;;;;5051252;28;20029;-44
2023/03/24 05:00:27;;;;;;;6.13;4.28;;;12.40;99.90;;;;;;5050870;28;19904;-45
2023/03/24 05:02:53;;;;;;;4.75;3.65;;;12.40;99.90;;;;;;5049056;28;20178;-45
2023/03/24 05:05:19;;;;;;;4.47;3.30;;;12.40;99.90;;;;;;5050045;28;20486;-45
2023/03/24 05:07:44;;;;;;;5.45;3.53;;;12.40;99.90;;;;;;5048964;28;20028;-44
2023/03/24 05:10:10;;;;;;;10.13;4.07;;;12.40;99.90;;;;;;5047288;28;20029;-46
2023/03/24 05:12:36;;;;;;;5.32;3.90;;;12.40;99.90;;;;;;5042111;28;20032;-44
2023/03/24 05:15:02;;;;;;;6.10;4.13;;;12.40;99.90;;;;;;5044297;28;20467;-45
2023/03/24 05:17:28;;;;;;;8.98;3.67;;;12.40;99.90;;;;;;5042240;28;20017;-44
2023/03/24 05:19:54;;;;;;;5.55;3.90;;;12.40;99.90;;;;;;5046202;28;20016;-45
2023/03/24 05:22:20;;;;;;;4.30;3.55;;;12.50;99.90;;;;;;5042178;28;20056;-45
2023/03/24 05:24:45;;;;;;;7.65;3.58;;;12.50;99.90;;;;;;5050684;28;20025;-47
2023/03/24 05:27:11;;;;;;;4.30;3.42;;;12.50;99.90;;;;;;5046466;28;20024;-44
2023/03/24 05:29:36;;;;;;;5.45;4.07;;;12.50;99.90;;;;;;5038552;28;20352;-45
2023/03/24 05:32:02;;;;;;;7.70;3.53;;;12.50;99.90;;;;;;5049313;28;20037;-45
2023/03/24 05:34:27;;;;;;;6.88;3.80;;;12.60;99.90;;;;;;5046127;28;20029;-47
2023/03/24 05:36:53;;;;;;;4.43;3.40;;;12.70;99.90;;;;;;5047147;28;20029;-44
2023/03/24 05:39:18;;;;;;;4.18;3.17;;;12.70;99.90;;;;;;5050206;28;20017;-46
2023/03/24 05:41:44;;;;;;;4.00;3.47;;;12.70;99.90;;;;;;5049156;28;20525;-48
2023/03/24 05:44:09;;;;;;;3.60;3.22;;;12.80;99.90;;;;;;5049651;28;20021;-44
2023/03/24 05:46:35;;;;;;;6.72;3.55;;;12.80;99.90;;;;;;5049440;28;20045;-44
2023/03/24 05:49:01;;;;;;;5.82;3.63;;;12.90;99.90;;;;;;5050191;28;20048;-44
2023/03/24 05:51:26;;;;;;;3.90;2.97;;;12.90;99.90;;;;;;5044979;28;20038;-47
2023/03/24 05:53:52;;;;;;;6.45;3.58;;;12.80;99.90;;;;;;5042897;28;20434;-47
2023/03/24 05:56:17;;;;;;;6.03;3.63;;;12.80;99.90;;;;;;5042425;28;20028;-48
2023/03/24 05:58:43;;;;;;;6.82;3.75;;;12.90;99.90;;;;;;5048607;28;20025;-47
2023/03/24 06:01:09;;;;;;;6.05;3.60;;;12.90;99.90;;;;;;5048005;28;20052;-47
2023/03/24 06:03:39;;;;;;;6.93;3.85;;;12.90;99.90;;;;;;5049389;28;20087;-45
2023/03/24 06:06:08;;;;;;;6.28;3.80;;;12.90;99.90;;;;;;5048911;28;20025;-44
2023/03/24 06:08:34;;;;;;;5.75;3.60;;;12.90;99.90;;;;;;5049613;28;20036;-45
2023/03/24 06:11:03;;;;;;;8.00;3.67;;;13.00;99.90;;;;;;5047994;28;20025;-45
2023/03/24 06:13:31;;;;;;;4.07;3.47;;;13.00;99.90;;;;;;5048816;28;20025;-45
2023/03/24 06:15:57;;;;;;;7.07;4.40;;;13.10;99.90;;;;;;5048012;28;20017;-45
2023/03/24 06:18:25;;;;;;;5.70;3.97;;;13.10;99.90;;;;;;5045044;28;20018;-45
2023/03/24 06:20:57;;;;;;;6.50;3.85;;;13.10;99.90;;;;;;5043282;28;20073;-47
2023/03/24 06:23:24;;;;;;;5.97;3.67;;;13.20;99.90;;;;;;5047748;28;20024;-45
2023/03/24 06:25:51;;;;;;;4.22;3.63;;;13.20;99.90;;;;;;5048466;28;20032;-48
2023/03/24 06:28:16;;;;;;;6.43;4.35;;;13.20;99.90;;;;;;5048790;28;20040;-45
2023/03/24 06:30:43;;;;;;;6.55;4.70;;;13.30;99.90;;;;;;5048000;28;20033;-44
2023/03/24 06:33:10;;;;;;;5.38;3.50;;;13.30;99.90;;;;;;5048954;28;20457;-45
2023/03/24 06:35:36;;;;;;;7.53;3.90;;;13.40;99.90;;;;;;5048539;28;20036;-45
2023/03/24 06:38:02;;;;;;;5.43;3.90;;;13.40;99.90;;;;;;5048894;28;20025;-44
2023/03/24 06:40:28;;;;;;;5.88;3.78;;;13.40;99.90;;;;;;5049347;28;20168;-43
2023/03/24 06:42:53;;;;;;;4.13;3.40;;;13.50;99.90;;;;;;5048451;28;20021;-43
2023/03/24 06:45:19;;;;;;;6.25;4.07;;;13.50;99.90;;;;;;5046844;28;20028;-43
2023/03/24 06:47:44;;;;;;;6.65;4.18;;;13.60;99.90;;;;;;5047986;28;20043;-43
2023/03/24 06:50:11;;;;;;;8.77;4.38;;;13.60;99.90;;;;;;5040449;28;20048;-44
2023/03/24 06:52:36;;;;;;;8.20;4.45;;;13.60;99.90;;;;;;5040247;28;20338;-44
2023/03/24 06:55:02;;;;;;;8.13;4.30;;;13.60;99.90;;;;;;5042556;28;20035;-44
2023/03/24 06:57:28;;;;;;;5.32;3.92;;;13.70;99.90;;;;;;5041878;28;20024;-44
2023/03/24 06:59:54;;;;;;;6.55;4.53;;;13.70;99.90;;;;;;5048420;28;20016;-44
2023/03/24 07:02:20;;;;;;;6.50;3.88;;;13.80;99.90;;;;;;5046948;28;20104;-46
2023/03/24 07:04:46;;;;;;;5.97;4.15;;;13.90;99.90;;;;;;5048849;28;20109;-45
2023/03/24 07:07:12;;;;;;;5.47;4.63;;;13.90;99.90;;;;;;5048530;28;20025;-45
2023/03/24 07:09:38;;;;;;;6.88;4.50;;;13.80;99.90;;;;;;5048587;28;20573;-44
2023/03/24 07:12:06;;;;;;;7.50;4.40;;;13.80;99.90;;;;;;5045448;28;20043;-45
2023/03/24 07:14:32;;;;;;;7.72;4.50;;;13.80;99.90;;;;;;5046890;28;20116;-45
2023/03/24 07:16:58;;;;;;;9.07;4.60;;;13.70;99.90;;;;;;5046664;28;20534;-44
2023/03/24 07:19:24;;;;;;;5.47;3.85;;;13.70;99.90;;;;;;5048431;28;20083;-45
2023/03/24 07:21:49;;;;;;;8.95;4.18;;;13.60;99.90;;;;;;5046255;28;20044;-46
2023/03/24 07:24:18;;;;;;;7.25;4.68;;;13.70;99.90;;;;;;5046882;28;20049;-45
2023/03/24 07:26:44;;;;;;;7.35;4.65;;;13.60;99.90;;;;;;5038074;28;20553;-45
2023/03/24 07:29:10;;;;;;;5.30;3.95;;;13.60;99.90;;;;;;5043862;28;20017;-45
2023/03/24 07:31:37;;;;;;;6.32;4.45;;;13.60;99.90;;;;;;5047134;28;20024;-44
2023/03/24 07:34:06;;;;;;;10.27;5.82;;;13.60;99.90;;;;;;5049293;28;20425;-44
2023/03/24 07:36:32;;;;;;;8.40;5.00;;;13.70;99.90;;;;;;5053556;28;20074;-44
2023/03/24 07:38:57;;;;;;;8.25;5.53;;;13.70;99.90;;;;;;5047947;28;20421;-44
2023/03/24 07:41:23;;;;;;;8.82;5.00;;;13.70;99.90;;;;;;5047870;28;20017;-45
2023/03/24 07:43:49;;;;;;;8.27;5.60;;;13.60;99.90;;;;;;5038318;28;20394;-44
2023/03/24 07:46:15;;;;;;;8.15;5.68;;;13.70;99.90;;;;;;5048777;28;20024;-45
2023/03/24 07:48:41;;;;;;;16.30;10.23;;;13.60;99.90;;;;;;5051581;28;20033;-46
2023/03/24 07:51:07;;;;;;;7.95;5.40;;;13.50;99.90;;;;;;5051912;28;20025;-44
2023/03/24 07:53:32;;;;;;;8.85;5.78;;;13.50;99.90;;;;;;5051494;28;20021;-44
2023/03/24 07:55:58;;;;;;;11.00;5.95;;;13.40;99.90;;;;;;5051010;28;20437;-45
2023/03/24 07:58:24;;;;;;;7.65;4.72;;;13.20;99.90;;;;;;5051363;28;20389;-44
2023/03/24 08:00:49;;;;;;;5.97;5.07;;;13.10;99.90;;;;;;5051823;28;20021;-44
2023/03/24 08:03:15;;;;;;;10.13;4.78;;;13.10;99.90;;;;;;5051381;28;20417;-44
2023/03/24 08:05:42;;;;;;;7.18;4.10;;;13.10;99.90;;;;;;5051361;28;20021;-44
2023/03/24 08:08:07;;;;;;;5.80;3.72;;;13.20;99.90;;;;;;5051382;28;20406;-44
2023/03/24 08:10:33;;;;;;;5.15;3.97;;;13.10;99.90;;;;;;5051178;28;20104;-44
2023/03/24 08:12:59;;;;;;;5.72;3.75;;;13.10;99.90;;;;;;5049842;28;20473;-43
2023/03/24 08:15:26;;;;;;;5.32;3.97;;;13.10;99.90;;;;;;5049002;28;20064;-44
2023/03/24 08:17:52;;;;;;;4.50;3.17;;;13.10;99.90;;;;;;5051179;28;20021;-44
2023/03/24 08:20:20;;;;;;;4.50;2.92;;;13.20;99.90;;;;;;5051365;28;20032;-45
2023/03/24 08:22:48;;;;;;;3.15;2.75;;;13.20;99.90;;;;;;5050174;28;20446;-44
2023/03/24 08:25:15;;;;;;;3.50;2.45;;;13.30;99.90;;;;;;5050871;28;20500;-45
2023/03/24 08:27:45;;;;;;;4.63;2.75;;;13.40;99.90;;;;;;5049382;28;20348;-44
2023/03/24 08:30:18;;;;;;;2.87;2.30;;;13.60;99.90;;;;;;5049831;28;20031;-44
2023/03/24 08:32:52;;;;;;;4.72;3.35;;;13.80;99.90;;;;;;5050725;28;20021;-44
2023/03/24 08:35:23;;;;;;;3.58;2.35;;;13.90;99.90;;;;;;5050628;28;20033;-44
2023/03/24 08:37:50;;;;;;;4.57;2.05;;;14.00;99.90;;;;;;5050285;28;20016;-44
2023/03/24 08:40:21;;;;;;;1.77;1.60;;;14.00;99.90;;;;;;5050895;28;20100;-44
2023/03/24 08:42:49;;;;;;;2.65;1.60;;;14.00;99.90;;;;;;5050713;28;20023;-43
2023/03/24 08:45:19;;;;;;;2.63;1.63;;;13.90;99.90;;;;;;5050842;28;20052;-43
2023/03/24 08:47:45;;;;;;;3.20;1.80;;;13.70;99.90;;;;;;5050338;28;20448;-43
2023/03/24 08:50:11;;;;;;;3.67;1.60;;;13.60;99.90;;;;;;5050534;28;20021;-43
2023/03/24 08:52:38;;;;;;;2.55;1.85;;;13.50;99.90;;;;;;5049871;28;20051;-44
2023/03/24 08:55:04;;;;;;;3.58;1.80;;;13.70;99.90;;;;;;5050413;28;20111;-44
2023/03/24 08:57:30;;;;;;;4.55;1.85;;;14.00;99.90;;;;;;5049154;28;20021;-44
2023/03/24 08:59:56;;;;;;;3.10;1.40;;;14.10;99.90;;;;;;5048994;28;20147;-44
2023/03/24 09:02:21;;;;;;;2.17;1.25;;;14.30;99.90;;;;;;5050521;28;20100;-44
2023/03/24 09:04:48;;;;;;;2.38;1.35;;;14.60;99.90;;;;;;5049999;28;20052;-45
2023/03/24 09:07:14;;;;;;;2.90;1.60;;;15.10;99.90;;;;;;5048727;28;20017;-45
2023/03/24 09:09:40;;;;;;;2.55;1.45;;;15.50;99.90;;;;;;5048487;28;20375;-44
2023/03/24 09:12:06;;;;;;;2.05;1.40;;;15.70;99.90;;;;;;5050500;28;20040;-45
2023/03/24 09:14:32;;;;;;;1.77;1.25;;;16.00;99.90;;;;;;5049076;28;20032;-44
2023/03/24 09:16:58;;;;;;;2.53;1.40;;;16.80;99.90;;;;;;5048888;28;20025;-45
2023/03/24 09:19:24;;;;;;;1.60;1.25;;;17.40;99.90;;;;;;5050005;28;20025;-45
2023/03/24 09:21:49;;;;;;;2.22;0.93;;;18.90;99.20;;;;;;5048442;28;20021;-45
2023/03/24 09:24:15;;;;;;;5.43;1.27;;;20.10;96.10;;;;;;5048855;28;20100;-46
2023/03/24 09:26:40;;;;;;;3.33;0.88;;;21.70;92.10;;;;;;5047310;28;20067;-45
2023/03/24 09:29:06;;;;;;;3.67;1.23;;;22.70;84.00;;;;;;5048962;28;20029;-45
2023/03/24 09:31:32;;;;;;;1.80;1.00;;;23.20;79.20;;;;;;5048658;28;20039;-45
2023/03/24 09:33:58;;;;;;;3.75;1.17;;;23.40;75.50;;;;;;5048357;28;20037;-45
2023/03/24 09:36:23;;;;;;;6.20;1.33;;;23.80;74.00;;;;;;5047893;28;20386;-45
2023/03/24 09:38:49;;;;;;;5.20;1.20;;;23.50;70.90;;;;;;5049055;28;20017;-44
2023/03/24 09:41:23;;;;;;;3.85;1.05;;;22.60;72.10;;;;;;5049182;28;20233;-45
2023/03/24 09:43:52;;;;;;;2.78;0.93;;;22.80;75.10;;;;;;5046362;28;20056;-45
2023/03/24 09:46:40;;;;;;;1.98;1.10;;;22.50;73.70;;;;;;5048531;28;20021;-45
2023/03/24 09:49:10;;;;;;;2.95;1.00;;;22.90;69.50;;;;;;5047138;28;20079;-48
2023/03/24 09:51:41;;;;;;;1.50;1.20;;;22.90;70.00;;;;;;5048884;28;20415;-45
2023/03/24 09:54:06;;;;;;;2.85;1.30;;;22.70;68.10;;;;;;5049034;28;20037;-45
2023/03/24 09:56:36;;;;;;;4.80;1.20;;;22.80;69.00;;;;;;5048820;28;20370;-45
2023/03/24 09:59:06;;;;;;;3.28;1.17;;;23.20;66.80;;;;;;5048715;28;20053;-45
2023/03/24 10:01:35;;;;;;;4.03;1.20;;;22.30;67.70;;;;;;5048459;28;20071;-45
2023/03/24 10:04:01;;;;;;;3.40;1.08;;;22.10;69.40;;;;;;5048804;28;20021;-45
2023/03/24 10:06:35;;;;;;;34.50;30.85;;;21.70;72.10;;;;;;5048416;28;20031;-45
2023/03/24 10:09:15;;;;;;;4.22;1.65;;;21.10;72.60;;;;;;5046984;28;20025;-45
2023/03/24 10:11:49;;;;;;;3.88;1.65;;;20.90;72.00;;;;;;5048224;28;20028;-46
2023/03/24 10:14:41;;;;;;;4.88;1.30;;;20.60;74.30;;;;;;5048810;28;20029;-45
2023/03/24 10:17:28;;;;;;;2.55;1.10;;;19.50;76.70;;;;;;5044731;28;20024;-45
2023/03/24 10:20:01;;;;;;;2.22;1.08;;;19.80;76.20;;;;;;5048215;28;20024;-45
2023/03/24 10:22:37;;;;;;;2.58;1.05;;;19.70;76.00;;;;;;5041589;28;20024;-45
2023/03/24 10:25:12;;;;;;;4.95;1.38;;;19.60;74.90;;;;;;5048381;28;20253;-45
2023/03/24 10:27:46;;;;;;;4.30;1.30;;;19.50;74.50;;;;;;5047881;28;20367;-45
2023/03/24 10:30:25;;;;;;;5.57;1.05;;;19.00;75.50;;;;;;5048364;28;20090;-44
2023/03/24 10:32:51;;;;;;;3.15;1.60;;;18.60;77.10;;;;;;5047492;28;20028;-45
2023/03/24 10:35:23;;;;;;;4.65;1.60;;;18.40;79.70;;;;;;5048208;28;20051;-45
2023/03/24 10:37:50;;;;;;;6.03;1.75;;;19.80;76.20;;;;;;5048239;28;20017;-45
2023/03/24 10:40:24;;;;;;;3.85;1.67;;;20.60;72.90;;;;;;5048478;28;20020;-45
2023/03/24 10:42:50;;;;;;;4.03;1.80;;;20.40;73.00;;;;;;5048372;28;20020;-44
2023/03/24 10:45:38;;;;;;;3.50;1.45;;;20.10;73.70;;;;;;5048131;28;20017;-44
2023/03/24 10:48:04;;;;;;;5.38;1.23;;;19.50;73.70;;;;;;5047679;28;20040;-44
2023/03/24 10:50:32;;;;;;;6.05;1.70;;;18.80;76.10;;;;;;5048368;28;20025;-45
2023/03/24 10:52:58;;;;;;;6.20;1.52;;;18.70;76.50;;;;;;5048006;28;20021;-44
2023/03/24 10:55:34;;;;;;;13.93;6.07;;;18.00;77.90;;;;;;5048169;28;20352;-46
2023/03/24 10:58:00;;;;;;;8.65;3.72;;;18.40;78.50;;;;;;5047845;28;20090;-45
2023/03/24 11:00:31;;;;;;;6.38;1.67;;;19.30;77.00;;;;;;5047185;28;20701;-46
2023/03/24 11:03:00;;;;;;;7.82;1.73;;;19.50;74.20;;;;;;5047891;28;20375;-45
2023/03/24 11:05:32;;;;;;;7.07;1.95;;;19.60;73.40;;;;;;5047748;28;20017;-46
2023/03/24 11:08:16;;;;;;;6.35;2.28;;;19.50;74.90;;;;;;5048001;28;20025;-48
2023/03/24 11:10:42;;;;;;;6.70;2.17;;;20.70;75.40;;;;;;5048003;28;20017;-47
2023/03/24 11:13:28;;;;;;;4.85;2.10;;;21.00;73.20;;;;;;5048104;28;20460;-46
2023/03/24 11:16:13;;;;;;;5.40;1.90;;;21.20;72.20;;;;;;5047154;28;20276;-46
2023/03/24 11:19:00;;;;;;;5.60;1.90;;;20.80;72.60;;;;;;5045938;28;20159;-47
2023/03/24 11:21:33;;;;;;;4.68;1.85;;;22.00;69.60;;;;;;5046821;28;20418;-45
2023/03/24 11:24:01;;;;;;;7.57;2.30;;;21.10;68.60;;;;;;5047834;28;20035;-45
2023/03/24 11:26:36;;;;;;;8.88;2.58;;;21.90;70.70;;;;;;5047479;28;20035;-47
2023/03/24 11:29:12;;;;;;;5.72;2.28;;;21.10;70.30;;;;;;5047954;28;20059;-45
2023/03/24 11:31:39;;;;;;;8.07;2.50;;;20.70;71.70;;;;;;5047517;28;20024;-45
2023/03/24 11:34:23;;;;;;;6.55;2.53;;;21.10;72.80;;;;;;5047315;28;20059;-45
2023/03/24 11:36:56;;;;;;;3.95;2.08;;;21.10;72.90;;;;;;5049545;28;20079;-45
2023/03/24 11:39:24;;;;;;;4.80;2.05;;;22.00;73.90;;;;;;5048107;28;20017;-46
2023/03/24 11:42:10;;;;;;;7.80;2.00;;;21.80;70.10;;;;;;5047606;28;20479;-45
2023/03/24 11:44:52;;;;;;;7.85;1.92;;;22.90;67.40;;;;;;5046550;28;20075;-45
2023/03/24 11:47:28;;;;;;;4.82;1.75;;;22.50;66.80;;;;;;5044229;28;20029;-48
2023/03/24 11:50:07;;;;;;;6.70;2.10;;;22.60;66.00;;;;;;5044407;28;20425;-45
2023/03/24 11:52:36;;;;;;;7.30;1.92;;;23.50;67.40;;;;;;5046973;28;20218;-49
2023/03/24 11:55:13;;;;;;;3.65;1.92;;;24.30;62.90;;;;;;5047407;28;20029;-46
2023/03/24 11:57:59;;;;;;;4.32;1.90;;;24.00;63.90;;;;;;5046757;28;20017;-45
2023/03/24 12:00:39;;;;;;;6.50;2.78;;;24.00;63.10;;;;;;5047277;28;20029;-45
2023/03/24 12:03:31;;;;;;;4.20;1.95;;;24.60;62.70;;;;;;5048238;28;20337;-46
2023/03/24 12:06:00;;;;;;;6.43;2.03;;;24.80;63.50;;;;;;5046245;28;20040;-45
2023/03/24 12:08:39;;;;;;;10.05;2.10;;;24.90;64.00;;;;;;5046727;28;20048;-45
2023/03/24 12:11:32;;;;;;;7.70;2.75;;;25.30;62.10;;;;;;5040129;28;20108;-46
2023/03/24 12:14:00;;;;;;;6.50;2.28;;;24.70;59.80;;;;;;5043415;28;20065;-46
2023/03/24 12:16:52;;;;;;;6.45;1.90;;;25.30;64.50;;;;;;5045263;28;20273;-48
2023/03/24 12:19:40;;;;;;;6.55;2.33;;;25.20;62.60;;;;;;5048488;28;20551;-45
2023/03/24 12:22:21;;;;;;;6.07;2.17;;;25.20;63.40;;;;;;5047349;28;20022;-44
2023/03/24 12:25:08;;;;;;;10.30;2.30;;;23.90;61.10;;;;;;5046457;28;20060;-44
2023/03/24 12:27:56;;;;;;;6.53;2.40;;;22.70;64.70;;;;;;5047062;28;20025;-43
2023/03/24 12:30:44;;;;;;;9.13;3.03;;;21.20;67.20;;;;;;5047455;28;20557;-43
2023/03/24 12:33:16;;;;;;;8.55;2.50;;;19.60;70.70;;;;;;5051365;28;20593;-43
2023/03/24 12:36:00;;;;;;;6.57;2.30;;;18.80;73.80;;;;;;5050947;28;20367;-43
2023/03/24 12:38:51;;;;;;;6.68;2.28;;;18.40;74.60;;;;;;5049825;28;20028;-43
2023/03/24 12:41:24;;;;;;;5.85;2.80;;;17.90;76.00;;;;;;5050912;28;20020;-44
2023/03/24 12:44:12;;;;;;;9.77;2.22;;;17.80;74.20;;;;;;5051541;28;20458;-43
2023/03/24 12:47:03;;;;;;;6.88;2.50;;;17.40;75.80;;;;;;5049751;28;20031;-45
2023/03/24 12:49:54;;;;;;;4.90;2.05;;;17.10;77.10;;;;;;5050887;28;20078;-43
2023/03/24 12:52:56;;;;;;;6.88;2.15;;;17.10;77.70;;;;;;5050925;28;20017;-45
2023/03/24 12:55:50;;;;;;;4.97;2.08;;;16.80;76.70;;;;;;5050494;28;20030;-44
2023/03/24 12:58:25;;;;;;;4.75;2.30;;;16.70;77.20;;;;;;5049581;28;20328;-44
2023/03/24 13:00:54;;;;;;;8.18;2.45;;;16.50;78.30;;;;;;5049571;28;20512;-46
2023/03/24 13:03:32;;;;;;;9.55;2.17;;;16.30;79.70;;;;;;5041914;28;20078;-47
2023/03/24 13:06:03;;;;;;;6.47;2.10;;;16.30;79.70;;;;;;5049566;28;20026;-44
2023/03/24 13:08:29;;;;;;;8.30;2.60;;;16.30;80.10;;;;;;5050107;28;20021;-46
2023/03/24 13:11:01;;;;;;;8.05;3.17;;;16.20;79.70;;;;;;5048810;28;20025;-47